sensor_id;sensor_type;location;lat;lon;timestamp;pressure;altitude;pressure_sealevel;temperature;humidity
10462;BME280;5278;42.656;23.374;2022-09-12T00:01:59;94424.28;;;22.75;64.24
10462;BME280;5278;42.656;23.374;2022-09-12T00:04:26;94416.59;;;22.79;63.64
10462;BME280;5278;42.656;23.374;2022-09-12T00:06:53;94423.75;;;22.78;64.13
10462;BME280;5278;42.656;23.374;2022-09-12T00:09:22;94414.22;;;22.82;63.59
10462;BME280;5278;42.656;23.374;2022-09-12T00:11:49;94427.50;;;22.87;62.97
10462;BME280;5278;42.656;23.374;2022-09-12T00:14:17;94430.16;;;22.87;62.73
10462;BME280;5278;42.656;23.374;2022-09-12T00:16:44;94425.03;;;22.70;63.46
10462;BME280;5278;42.656;23.374;2022-09-12T00:19:11;94427.63;;;22.65;63.44
10462;BME280;5278;42.656;23.374;2022-09-12T00:21:39;94427.31;;;22.62;63.58
10462;BME280;5278;42.656;23.374;2022-09-12T00:24:07;94433.13;;;22.59;63.20
10462;BME280;5278;42.656;23.374;2022-09-12T00:26:35;94439.00;;;22.34;63.52
10462;BME280;5278;42.656;23.374;2022-09-12T00:29:03;94433.38;;;22.25;63.96
10462;BME280;5278;42.656;23.374;2022-09-12T00:31:29;94432.88;;;22.28;64.66
10462;BME280;5278;42.656;23.374;2022-09-12T00:33:58;94430.63;;;22.47;63.87
10462;BME280;5278;42.656;23.374;2022-09-12T00:36:27;94432.53;;;22.52;63.39
10462;BME280;5278;42.656;23.374;2022-09-12T00:38:54;94419.50;;;22.45;63.22
10462;BME280;5278;42.656;23.374;2022-09-12T00:41:22;94429.53;;;22.43;62.95
10462;BME280;5278;42.656;23.374;2022-09-12T00:43:52;94435.13;;;22.47;63.63
10462;BME280;5278;42.656;23.374;2022-09-12T00:46:31;94434.50;;;22.35;63.28
10462;BME280;5278;42.656;23.374;2022-09-12T00:49:02;94437.75;;;22.42;63.53
10462;BME280;5278;42.656;23.374;2022-09-12T00:51:33;94436.19;;;22.46;62.58
10462;BME280;5278;42.656;23.374;2022-09-12T00:54:05;94429.19;;;22.61;62.00
10462;BME280;5278;42.656;23.374;2022-09-12T00:56:35;94432.72;;;22.72;62.09
10462;BME280;5278;42.656;23.374;2022-09-12T00:59:07;94435.63;;;22.70;61.72
10462;BME280;5278;42.656;23.374;2022-09-12T01:01:36;94430.50;;;22.64;61.58
10462;BME280;5278;42.656;23.374;2022-09-12T01:04:04;94425.50;;;22.67;61.38
10462;BME280;5278;42.656;23.374;2022-09-12T01:06:34;94428.63;;;22.59;62.03
10462;BME280;5278;42.656;23.374;2022-09-12T01:09:03;94399.56;;;22.38;61.67
10462;BME280;5278;42.656;23.374;2022-09-12T01:11:31;94406.00;;;22.47;61.58
10462;BME280;5278;42.656;23.374;2022-09-12T01:13:59;94416.66;;;22.57;61.17
10462;BME280;5278;42.656;23.374;2022-09-12T01:16:28;94410.84;;;22.55;61.09
10462;BME280;5278;42.656;23.374;2022-09-12T01:19:06;94413.94;;;22.47;60.67
10462;BME280;5278;42.656;23.374;2022-09-12T01:21:46;94417.34;;;22.42;61.13
10462;BME280;5278;42.656;23.374;2022-09-12T01:24:40;94410.22;;;22.43;60.79
10462;BME280;5278;42.656;23.374;2022-09-12T01:27:26;94406.31;;;22.50;60.17
10462;BME280;5278;42.656;23.374;2022-09-12T01:33:17;94418.22;;;22.53;60.51
10462;BME280;5278;42.656;23.374;2022-09-12T01:36:00;94403.66;;;22.50;60.14
10462;BME280;5278;42.656;23.374;2022-09-12T01:38:34;94408.44;;;22.53;60.03
10462;BME280;5278;42.656;23.374;2022-09-12T01:41:09;94412.69;;;22.54;60.02
10462;BME280;5278;42.656;23.374;2022-09-12T01:43:44;94412.72;;;22.59;59.59
10462;BME280;5278;42.656;23.374;2022-09-12T01:46:16;94411.94;;;22.59;59.40
10462;BME280;5278;42.656;23.374;2022-09-12T01:48:50;94415.84;;;22.51;59.53
10462;BME280;5278;42.656;23.374;2022-09-12T01:51:22;94407.56;;;22.43;59.91
10462;BME280;5278;42.656;23.374;2022-09-12T01:53:54;94399.38;;;22.44;60.03
10462;BME280;5278;42.656;23.374;2022-09-12T01:56:25;94382.59;;;22.33;60.03
10462;BME280;5278;42.656;23.374;2022-09-12T01:58:57;94397.28;;;22.46;59.69
10462;BME280;5278;42.656;23.374;2022-09-12T02:01:28;94397.63;;;22.60;59.41
10462;BME280;5278;42.656;23.374;2022-09-12T02:04:04;94398.06;;;22.47;58.63
10462;BME280;5278;42.656;23.374;2022-09-12T02:06:36;94398.09;;;22.52;60.22
10462;BME280;5278;42.656;23.374;2022-09-12T02:09:08;94397.78;;;22.43;59.82
10462;BME280;5278;42.656;23.374;2022-09-12T02:11:40;94396.97;;;22.43;59.41
10462;BME280;5278;42.656;23.374;2022-09-12T02:14:10;94396.47;;;22.46;59.41
10462;BME280;5278;42.656;23.374;2022-09-12T02:16:41;94401.53;;;22.52;59.40
10462;BME280;5278;42.656;23.374;2022-09-12T02:19:16;94409.94;;;22.39;59.40
10462;BME280;5278;42.656;23.374;2022-09-12T02:21:46;94405.63;;;22.33;59.31
10462;BME280;5278;42.656;23.374;2022-09-12T02:24:16;94410.88;;;22.28;59.28
10462;BME280;5278;42.656;23.374;2022-09-12T02:26:48;94412.16;;;22.20;59.22
10462;BME280;5278;42.656;23.374;2022-09-12T02:29:18;94405.22;;;22.14;59.28
10462;BME280;5278;42.656;23.374;2022-09-12T02:31:46;94406.31;;;22.18;59.42
10462;BME280;5278;42.656;23.374;2022-09-12T02:34:24;94408.09;;;22.13;59.74
10462;BME280;5278;42.656;23.374;2022-09-12T02:37:00;94408.63;;;22.10;59.33
10462;BME280;5278;42.656;23.374;2022-09-12T02:39:29;94411.03;;;22.11;59.59
10462;BME280;5278;42.656;23.374;2022-09-12T02:41:57;94412.34;;;22.14;59.42
10462;BME280;5278;42.656;23.374;2022-09-12T02:44:26;94408.91;;;22.13;59.55
10462;BME280;5278;42.656;23.374;2022-09-12T02:46:57;94415.56;;;22.16;58.90
10462;BME280;5278;42.656;23.374;2022-09-12T02:49:28;94423.06;;;22.29;58.60
10462;BME280;5278;42.656;23.374;2022-09-12T02:51:55;94417.78;;;22.29;58.46
10462;BME280;5278;42.656;23.374;2022-09-12T02:54:22;94410.09;;;22.27;58.56
10462;BME280;5278;42.656;23.374;2022-09-12T02:56:50;94414.38;;;22.33;58.21
10462;BME280;5278;42.656;23.374;2022-09-12T02:59:19;94380.78;;;22.07;57.36
10462;BME280;5278;42.656;23.374;2022-09-12T03:02:04;94388.25;;;21.88;58.23
10462;BME280;5278;42.656;23.374;2022-09-12T03:05:09;94434.41;;;22.24;58.17
10462;BME280;5278;42.656;23.374;2022-09-12T03:07:54;94433.91;;;22.27;57.74
10462;BME280;5278;42.656;23.374;2022-09-12T03:10:32;94437.69;;;22.31;57.53
10462;BME280;5278;42.656;23.374;2022-09-12T03:13:07;94439.75;;;22.29;56.90
10462;BME280;5278;42.656;23.374;2022-09-12T03:15:48;94435.38;;;22.40;56.97
10462;BME280;5278;42.656;23.374;2022-09-12T03:18:28;94428.94;;;22.31;56.84
10462;BME280;5278;42.656;23.374;2022-09-12T03:21:02;94431.72;;;22.19;57.22
10462;BME280;5278;42.656;23.374;2022-09-12T03:23:37;94433.09;;;22.27;56.92
10462;BME280;5278;42.656;23.374;2022-09-12T03:26:10;94429.09;;;22.19;57.35
10462;BME280;5278;42.656;23.374;2022-09-12T03:28:39;94425.31;;;22.10;57.34
10462;BME280;5278;42.656;23.374;2022-09-12T03:31:12;94420.00;;;22.10;57.72
10462;BME280;5278;42.656;23.374;2022-09-12T03:33:39;94429.13;;;21.98;57.98
10462;BME280;5278;42.656;23.374;2022-09-12T03:36:14;94429.00;;;22.09;57.74
10462;BME280;5278;42.656;23.374;2022-09-12T03:38:42;94423.66;;;22.04;57.88
10462;BME280;5278;42.656;23.374;2022-09-12T03:41:08;94435.66;;;21.90;58.52
10462;BME280;5278;42.656;23.374;2022-09-12T03:43:35;94428.84;;;21.94;58.22
10462;BME280;5278;42.656;23.374;2022-09-12T03:46:02;94426.56;;;21.81;57.38
10462;BME280;5278;42.656;23.374;2022-09-12T03:48:29;94419.63;;;21.53;59.58
10462;BME280;5278;42.656;23.374;2022-09-12T03:50:59;94433.88;;;21.52;59.72
10462;BME280;5278;42.656;23.374;2022-09-12T03:53:28;94429.09;;;21.71;59.25
10462;BME280;5278;42.656;23.374;2022-09-12T03:55:55;94391.28;;;21.48;58.79
10462;BME280;5278;42.656;23.374;2022-09-12T03:58:22;94433.31;;;21.72;58.68
10462;BME280;5278;42.656;23.374;2022-09-12T04:00:49;94425.72;;;21.75;58.52
10462;BME280;5278;42.656;23.374;2022-09-12T04:03:16;94421.47;;;21.74;58.46
10462;BME280;5278;42.656;23.374;2022-09-12T04:05:44;94431.47;;;21.72;58.71
10462;BME280;5278;42.656;23.374;2022-09-12T04:08:12;94426.44;;;21.71;58.57
10462;BME280;5278;42.656;23.374;2022-09-12T04:10:41;94416.84;;;21.65;58.22
10462;BME280;5278;42.656;23.374;2022-09-12T04:15:34;94438.44;;;22.00;57.51
10462;BME280;5278;42.656;23.374;2022-09-12T04:18:01;94439.22;;;22.01;57.40
10462;BME280;5278;42.656;23.374;2022-09-12T04:20:28;94439.03;;;21.85;57.65
10462;BME280;5278;42.656;23.374;2022-09-12T04:22:55;94431.91;;;21.86;58.33
10462;BME280;5278;42.656;23.374;2022-09-12T04:25:22;94433.81;;;21.69;59.72
10462;BME280;5278;42.656;23.374;2022-09-12T04:27:50;94440.66;;;21.86;58.50
10462;BME280;5278;42.656;23.374;2022-09-12T04:32:44;94449.13;;;21.88;57.52
10462;BME280;5278;42.656;23.374;2022-09-12T04:35:11;94450.16;;;21.87;58.23
10462;BME280;5278;42.656;23.374;2022-09-12T04:37:38;94453.44;;;21.95;57.96
10462;BME280;5278;42.656;23.374;2022-09-12T04:40:06;94441.47;;;22.14;57.39
10462;BME280;5278;42.656;23.374;2022-09-12T04:42:33;94444.59;;;22.38;56.95
10462;BME280;5278;42.656;23.374;2022-09-12T04:45:01;94442.94;;;22.63;56.09
10462;BME280;5278;42.656;23.374;2022-09-12T04:47:28;94453.53;;;22.90;54.51
10462;BME280;5278;42.656;23.374;2022-09-12T04:49:54;94449.56;;;22.93;54.93
10462;BME280;5278;42.656;23.374;2022-09-12T04:52:22;94441.97;;;23.11;54.98
10462;BME280;5278;42.656;23.374;2022-09-12T04:54:48;94453.28;;;23.39;53.86
10462;BME280;5278;42.656;23.374;2022-09-12T04:57:15;94452.91;;;23.72;53.17
10462;BME280;5278;42.656;23.374;2022-09-12T04:59:42;94446.63;;;23.93;52.90
10462;BME280;5278;42.656;23.374;2022-09-12T05:02:11;94446.91;;;24.12;51.61
10462;BME280;5278;42.656;23.374;2022-09-12T05:04:38;94447.50;;;24.19;51.70
10462;BME280;5278;42.656;23.374;2022-09-12T05:07:05;94458.69;;;24.47;50.66
10462;BME280;5278;42.656;23.374;2022-09-12T05:09:32;94440.38;;;24.80;49.92
10462;BME280;5278;42.656;23.374;2022-09-12T05:11:59;94439.28;;;25.12;49.25
10462;BME280;5278;42.656;23.374;2022-09-12T05:14:26;94448.25;;;25.36;48.14
10462;BME280;5278;42.656;23.374;2022-09-12T05:16:53;94453.53;;;25.61;46.83
10462;BME280;5278;42.656;23.374;2022-09-12T05:19:25;94451.81;;;25.86;46.42
10462;BME280;5278;42.656;23.374;2022-09-12T05:21:52;94450.03;;;26.25;45.16
10462;BME280;5278;42.656;23.374;2022-09-12T05:24:19;94440.25;;;26.60;44.25
10462;BME280;5278;42.656;23.374;2022-09-12T05:26:46;94439.72;;;26.91;43.41
10462;BME280;5278;42.656;23.374;2022-09-12T05:29:12;94446.69;;;27.16;42.53
10462;BME280;5278;42.656;23.374;2022-09-12T05:31:39;94445.34;;;27.42;42.28
10462;BME280;5278;42.656;23.374;2022-09-12T05:34:06;94439.22;;;27.66;41.47
10462;BME280;5278;42.656;23.374;2022-09-12T05:36:35;94442.72;;;28.09;40.70
10462;BME280;5278;42.656;23.374;2022-09-12T05:39:03;94449.09;;;28.32;39.74
10462;BME280;5278;42.656;23.374;2022-09-12T05:41:31;94431.97;;;28.33;39.48
10462;BME280;5278;42.656;23.374;2022-09-12T05:43:59;94441.28;;;28.73;38.58
10462;BME280;5278;42.656;23.374;2022-09-12T05:46:28;94434.28;;;28.90;38.66
10462;BME280;5278;42.656;23.374;2022-09-12T05:48:56;94427.50;;;29.12;37.79
10462;BME280;5278;42.656;23.374;2022-09-12T05:51:25;94440.56;;;29.32;37.08
10462;BME280;5278;42.656;23.374;2022-09-12T05:53:56;94437.50;;;29.52;36.88
10462;BME280;5278;42.656;23.374;2022-09-12T05:56:25;94430.22;;;29.80;36.34
10462;BME280;5278;42.656;23.374;2022-09-12T05:58:53;94429.34;;;29.84;36.32
10462;BME280;5278;42.656;23.374;2022-09-12T06:01:20;94419.81;;;30.06;35.22
10462;BME280;5278;42.656;23.374;2022-09-12T06:03:49;94423.53;;;30.32;34.82
10462;BME280;5278;42.656;23.374;2022-09-12T06:06:17;94421.53;;;30.24;34.88
10462;BME280;5278;42.656;23.374;2022-09-12T06:08:46;94412.97;;;30.35;34.63
10462;BME280;5278;42.656;23.374;2022-09-12T06:11:17;94395.66;;;30.42;34.76
10462;BME280;5278;42.656;23.374;2022-09-12T06:13:44;94412.84;;;30.76;33.70
10462;BME280;5278;42.656;23.374;2022-09-12T06:16:13;94406.00;;;30.93;34.01
10462;BME280;5278;42.656;23.374;2022-09-12T06:18:41;94405.19;;;31.14;33.16
10462;BME280;5278;42.656;23.374;2022-09-12T06:21:09;94413.75;;;31.25;32.61
10462;BME280;5278;42.656;23.374;2022-09-12T06:23:37;94405.00;;;31.42;32.60
10462;BME280;5278;42.656;23.374;2022-09-12T06:26:07;94400.88;;;31.44;32.54
10462;BME280;5278;42.656;23.374;2022-09-12T06:28:37;94410.44;;;31.59;32.24
10462;BME280;5278;42.656;23.374;2022-09-12T06:31:06;94413.06;;;31.81;31.75
10462;BME280;5278;42.656;23.374;2022-09-12T06:33:35;94412.25;;;31.72;31.97
10462;BME280;5278;42.656;23.374;2022-09-12T06:36:03;94437.44;;;31.54;31.92
10462;BME280;5278;42.656;23.374;2022-09-12T06:38:30;94414.00;;;31.77;32.11
10462;BME280;5278;42.656;23.374;2022-09-12T06:40:57;94420.63;;;31.79;31.89
10462;BME280;5278;42.656;23.374;2022-09-12T06:43:25;94422.38;;;31.44;32.08
10462;BME280;5278;42.656;23.374;2022-09-12T06:45:53;94428.34;;;31.33;32.71
10462;BME280;5278;42.656;23.374;2022-09-12T06:48:20;94436.06;;;31.26;33.13
10462;BME280;5278;42.656;23.374;2022-09-12T06:50:55;94440.72;;;31.42;32.76
10462;BME280;5278;42.656;23.374;2022-09-12T06:53:23;94369.84;;;30.99;33.02
10462;BME280;5278;42.656;23.374;2022-09-12T06:55:55;94422.44;;;31.53;32.23
10462;BME280;5278;42.656;23.374;2022-09-12T06:58:22;94439.00;;;31.94;31.70
10462;BME280;5278;42.656;23.374;2022-09-12T07:00:49;94441.19;;;32.32;31.56
10462;BME280;5278;42.656;23.374;2022-09-12T07:03:18;94439.13;;;32.55;31.38
10462;BME280;5278;42.656;23.374;2022-09-12T07:05:46;94424.09;;;32.36;31.24
10462;BME280;5278;42.656;23.374;2022-09-12T07:08:13;94451.03;;;32.71;31.17
10462;BME280;5278;42.656;23.374;2022-09-12T07:10:39;94447.19;;;33.06;30.20
10462;BME280;5278;42.656;23.374;2022-09-12T07:13:06;94461.16;;;32.91;30.44
10462;BME280;5278;42.656;23.374;2022-09-12T07:15:34;94449.56;;;32.99;30.45
10462;BME280;5278;42.656;23.374;2022-09-12T07:18:01;94428.66;;;32.44;29.96
10462;BME280;5278;42.656;23.374;2022-09-12T07:20:29;94466.69;;;32.69;30.08
10462;BME280;5278;42.656;23.374;2022-09-12T07:22:57;94473.66;;;33.04;29.39
10462;BME280;5278;42.656;23.374;2022-09-12T07:25:25;94460.28;;;33.34;28.96
10462;BME280;5278;42.656;23.374;2022-09-12T07:27:51;94466.94;;;33.45;28.90
10462;BME280;5278;42.656;23.374;2022-09-12T07:30:19;94451.16;;;33.17;28.76
10462;BME280;5278;42.656;23.374;2022-09-12T07:32:46;94455.59;;;33.05;28.93
10462;BME280;5278;42.656;23.374;2022-09-12T07:35:17;94445.56;;;33.14;28.45
10462;BME280;5278;42.656;23.374;2022-09-12T07:37:45;94455.47;;;33.56;28.11
10462;BME280;5278;42.656;23.374;2022-09-12T07:40:12;94453.34;;;34.08;27.19
10462;BME280;5278;42.656;23.374;2022-09-12T07:42:39;94450.50;;;34.05;27.44
10462;BME280;5278;42.656;23.374;2022-09-12T07:45:06;94445.81;;;33.93;27.58
10462;BME280;5278;42.656;23.374;2022-09-12T07:47:33;94448.50;;;33.93;27.10
10462;BME280;5278;42.656;23.374;2022-09-12T07:50:00;94443.66;;;34.07;26.85
10462;BME280;5278;42.656;23.374;2022-09-12T07:52:28;94456.84;;;33.80;26.68
10462;BME280;5278;42.656;23.374;2022-09-12T07:54:57;94459.41;;;34.05;26.93
10462;BME280;5278;42.656;23.374;2022-09-12T07:57:24;94455.91;;;34.34;25.74
10462;BME280;5278;42.656;23.374;2022-09-12T07:59:51;94454.63;;;34.61;25.76
10462;BME280;5278;42.656;23.374;2022-09-12T08:02:17;94449.44;;;35.10;24.78
10462;BME280;5278;42.656;23.374;2022-09-12T08:04:46;94447.50;;;35.76;24.95
10462;BME280;5278;42.656;23.374;2022-09-12T08:07:13;94449.16;;;35.68;24.23
10462;BME280;5278;42.656;23.374;2022-09-12T08:09:40;94453.34;;;35.78;24.07
10462;BME280;5278;42.656;23.374;2022-09-12T08:12:08;94460.13;;;35.96;24.27
10462;BME280;5278;42.656;23.374;2022-09-12T08:14:35;94460.00;;;36.05;24.06
10462;BME280;5278;42.656;23.374;2022-09-12T08:17:02;94450.75;;;36.18;23.10
10462;BME280;5278;42.656;23.374;2022-09-12T08:19:29;94456.28;;;36.86;22.90
10462;BME280;5278;42.656;23.374;2022-09-12T08:21:56;94449.88;;;37.49;22.15
10462;BME280;5278;42.656;23.374;2022-09-12T08:24:24;94453.75;;;38.11;21.95
10462;BME280;5278;42.656;23.374;2022-09-12T08:26:50;94453.75;;;36.93;22.84
10462;BME280;5278;42.656;23.374;2022-09-12T08:29:18;94454.41;;;35.40;24.41
10462;BME280;5278;42.656;23.374;2022-09-12T08:31:45;94458.19;;;33.94;26.25
10462;BME280;5278;42.656;23.374;2022-09-12T08:34:12;94466.53;;;33.00;27.59
10462;BME280;5278;42.656;23.374;2022-09-12T08:36:41;94447.47;;;33.13;27.23
10462;BME280;5278;42.656;23.374;2022-09-12T08:39:10;94437.28;;;33.83;26.90
10462;BME280;5278;42.656;23.374;2022-09-12T08:41:40;94442.44;;;34.96;25.42
10462;BME280;5278;42.656;23.374;2022-09-12T08:44:21;94446.41;;;34.28;25.77
10462;BME280;5278;42.656;23.374;2022-09-12T08:46:59;94456.38;;;32.88;27.36
10462;BME280;5278;42.656;23.374;2022-09-12T08:49:32;94426.13;;;32.22;28.47
10462;BME280;5278;42.656;23.374;2022-09-12T08:52:04;94451.03;;;32.79;27.87
10462;BME280;5278;42.656;23.374;2022-09-12T08:54:33;94435.78;;;32.40;28.45
10462;BME280;5278;42.656;23.374;2022-09-12T08:57:02;94446.38;;;32.28;27.91
10462;BME280;5278;42.656;23.374;2022-09-12T08:59:36;94448.81;;;31.51;29.54
10462;BME280;5278;42.656;23.374;2022-09-12T09:02:13;94442.34;;;30.54;30.49
10462;BME280;5278;42.656;23.374;2022-09-12T09:04:49;94432.75;;;30.04;31.32
10462;BME280;5278;42.656;23.374;2022-09-12T09:07:32;94438.63;;;29.19;32.64
10462;BME280;5278;42.656;23.374;2022-09-12T09:10:15;94440.97;;;30.43;31.60
10462;BME280;5278;42.656;23.374;2022-09-12T09:12:50;94434.22;;;30.90;29.52
10462;BME280;5278;42.656;23.374;2022-09-12T09:15:40;94433.13;;;32.92;27.50
10462;BME280;5278;42.656;23.374;2022-09-12T09:18:14;94419.22;;;34.54;24.95
10462;BME280;5278;42.656;23.374;2022-09-12T09:20:46;94413.84;;;35.40;23.51
10462;BME280;5278;42.656;23.374;2022-09-12T09:23:20;94419.75;;;36.15;22.80
10462;BME280;5278;42.656;23.374;2022-09-12T09:25:51;94426.06;;;37.27;22.02
10462;BME280;5278;42.656;23.374;2022-09-12T09:28:24;94367.78;;;35.86;22.74
10462;BME280;5278;42.656;23.374;2022-09-12T09:30:57;94417.13;;;37.11;22.06
10462;BME280;5278;42.656;23.374;2022-09-12T09:33:25;94427.00;;;36.63;22.82
10462;BME280;5278;42.656;23.374;2022-09-12T09:36:01;94416.13;;;36.76;22.47
10462;BME280;5278;42.656;23.374;2022-09-12T09:38:40;94412.88;;;35.94;22.80
10462;BME280;5278;42.656;23.374;2022-09-12T09:41:23;94413.47;;;34.14;24.86
10462;BME280;5278;42.656;23.374;2022-09-12T09:43:55;94415.41;;;33.38;26.15
10462;BME280;5278;42.656;23.374;2022-09-12T09:46:24;94400.13;;;34.38;25.03
10462;BME280;5278;42.656;23.374;2022-09-12T09:48:53;94407.41;;;35.45;24.00
10462;BME280;5278;42.656;23.374;2022-09-12T09:51:25;94409.94;;;35.17;24.59
10462;BME280;5278;42.656;23.374;2022-09-12T09:53:54;94387.34;;;35.34;24.00
10462;BME280;5278;42.656;23.374;2022-09-12T09:56:28;94412.88;;;35.94;22.79
10462;BME280;5278;42.656;23.374;2022-09-12T09:59:07;94402.56;;;35.63;23.48
10462;BME280;5278;42.656;23.374;2022-09-12T10:01:36;94415.44;;;34.76;23.80
10462;BME280;5278;42.656;23.374;2022-09-12T10:04:03;94406.91;;;34.24;24.75
10462;BME280;5278;42.656;23.374;2022-09-12T10:06:31;94357.94;;;33.54;25.39
10462;BME280;5278;42.656;23.374;2022-09-12T10:09:16;94401.75;;;34.10;25.10
10462;BME280;5278;42.656;23.374;2022-09-12T10:11:44;94400.34;;;33.45;25.84
10462;BME280;5278;42.656;23.374;2022-09-12T10:14:32;94388.38;;;34.13;25.29
10462;BME280;5278;42.656;23.374;2022-09-12T10:17:08;94388.63;;;34.71;24.82
10462;BME280;5278;42.656;23.374;2022-09-12T10:19:47;94393.03;;;35.77;22.77
10462;BME280;5278;42.656;23.374;2022-09-12T10:22:16;94387.69;;;36.57;22.62
10462;BME280;5278;42.656;23.374;2022-09-12T10:24:47;94371.81;;;37.27;21.33
10462;BME280;5278;42.656;23.374;2022-09-12T10:27:21;94376.03;;;37.72;20.95
10462;BME280;5278;42.656;23.374;2022-09-12T10:29:52;94374.47;;;37.71;21.65
10462;BME280;5278;42.656;23.374;2022-09-12T10:32:37;94390.38;;;37.88;21.11
10462;BME280;5278;42.656;23.374;2022-09-12T10:35:15;94382.59;;;38.21;21.28
10462;BME280;5278;42.656;23.374;2022-09-12T10:37:51;94393.19;;;37.01;21.86
10462;BME280;5278;42.656;23.374;2022-09-12T10:40:22;94397.56;;;34.83;24.28
10462;BME280;5278;42.656;23.374;2022-09-12T10:42:51;94403.97;;;34.08;25.24
10462;BME280;5278;42.656;23.374;2022-09-12T10:45:29;94380.78;;;34.15;25.02
10462;BME280;5278;42.656;23.374;2022-09-12T10:47:58;94387.31;;;34.56;24.99
10462;BME280;5278;42.656;23.374;2022-09-12T10:50:28;94387.28;;;35.67;23.10
10462;BME280;5278;42.656;23.374;2022-09-12T10:53:12;94388.13;;;36.72;21.87
10462;BME280;5278;42.656;23.374;2022-09-12T10:55:47;94377.19;;;36.96;21.20
10462;BME280;5278;42.656;23.374;2022-09-12T10:58:35;94371.28;;;37.22;20.73
10462;BME280;5278;42.656;23.374;2022-09-12T11:01:12;94386.50;;;37.42;20.29
10462;BME280;5278;42.656;23.374;2022-09-12T11:04:08;94384.56;;;36.55;21.34
10462;BME280;5278;42.656;23.374;2022-09-12T11:06:54;94382.44;;;36.37;21.95
10462;BME280;5278;42.656;23.374;2022-09-12T11:09:26;94391.38;;;36.37;21.94
10462;BME280;5278;42.656;23.374;2022-09-12T11:12:07;94398.03;;;36.40;21.89
10462;BME280;5278;42.656;23.374;2022-09-12T11:14:51;94389.38;;;35.49;22.67
10462;BME280;5278;42.656;23.374;2022-09-12T11:17:32;94394.34;;;35.59;23.34
10462;BME280;5278;42.656;23.374;2022-09-12T11:20:21;94382.75;;;35.47;23.54
10462;BME280;5278;42.656;23.374;2022-09-12T11:23:12;94387.03;;;34.49;24.10
10462;BME280;5278;42.656;23.374;2022-09-12T11:25:48;94393.81;;;34.76;23.76
10462;BME280;5278;42.656;23.374;2022-09-12T11:28:29;94394.53;;;35.18;23.35
10462;BME280;5278;42.656;23.374;2022-09-12T11:31:10;94394.81;;;35.61;23.20
10462;BME280;5278;42.656;23.374;2022-09-12T11:33:43;94385.03;;;35.81;22.34
10462;BME280;5278;42.656;23.374;2022-09-12T11:36:20;94395.50;;;35.95;22.65
10462;BME280;5278;42.656;23.374;2022-09-12T11:39:00;94371.66;;;36.12;22.74
10462;BME280;5278;42.656;23.374;2022-09-12T11:41:30;94396.78;;;36.77;21.36
10462;BME280;5278;42.656;23.374;2022-09-12T11:44:02;94390.81;;;36.72;21.29
10462;BME280;5278;42.656;23.374;2022-09-12T11:46:33;94371.25;;;36.50;21.57
10462;BME280;5278;42.656;23.374;2022-09-12T11:49:05;94385.56;;;36.63;22.18
10462;BME280;5278;42.656;23.374;2022-09-12T11:51:44;94390.28;;;36.02;22.71
10462;BME280;5278;42.656;23.374;2022-09-12T11:54:21;94380.16;;;36.11;22.87
10462;BME280;5278;42.656;23.374;2022-09-12T11:56:52;94395.63;;;35.17;24.18
10462;BME280;5278;42.656;23.374;2022-09-12T11:59:34;94386.91;;;34.99;23.97
10462;BME280;5278;42.656;23.374;2022-09-12T12:02:11;94397.19;;;34.73;23.88
10462;BME280;5278;42.656;23.374;2022-09-12T12:04:46;94393.09;;;34.46;24.88
10462;BME280;5278;42.656;23.374;2022-09-12T12:07:17;94382.53;;;34.53;24.71
10462;BME280;5278;42.656;23.374;2022-09-12T12:09:47;94394.84;;;34.00;24.97
10462;BME280;5278;42.656;23.374;2022-09-12T12:12:18;94383.66;;;33.05;26.57
10462;BME280;5278;42.656;23.374;2022-09-12T12:14:49;94392.91;;;32.53;27.15
10462;BME280;5278;42.656;23.374;2022-09-12T12:17:19;94347.09;;;31.75;27.55
10462;BME280;5278;42.656;23.374;2022-09-12T12:19:56;94384.34;;;31.20;28.61
10462;BME280;5278;42.656;23.374;2022-09-12T12:22:25;94313.91;;;30.39;29.48
10462;BME280;5278;42.656;23.374;2022-09-12T12:25:20;94380.88;;;30.66;29.74
10462;BME280;5278;42.656;23.374;2022-09-12T12:27:54;94379.53;;;30.19;29.71
10462;BME280;5278;42.656;23.374;2022-09-12T12:36:37;94372.38;;;29.24;31.02
10462;BME280;5278;42.656;23.374;2022-09-12T12:48:50;94385.94;;;27.56;34.35
10462;BME280;5278;42.656;23.374;2022-09-12T12:51:40;94343.06;;;27.23;34.25
10462;BME280;5278;42.656;23.374;2022-09-12T12:57:32;94375.66;;;27.20;35.21
10462;BME280;5278;42.656;23.374;2022-09-12T13:00:06;94381.03;;;27.15;35.65
10462;BME280;5278;42.656;23.374;2022-09-12T13:02:40;94366.16;;;26.80;36.07
10462;BME280;5278;42.656;23.374;2022-09-12T13:05:20;94391.03;;;26.42;36.34
10462;BME280;5278;42.656;23.374;2022-09-12T13:07:53;94397.00;;;26.29;37.05
10462;BME280;5278;42.656;23.374;2022-09-12T13:10:21;94393.03;;;26.26;37.34
10462;BME280;5278;42.656;23.374;2022-09-12T13:12:50;94396.97;;;26.34;37.46
10462;BME280;5278;42.656;23.374;2022-09-12T13:15:46;94390.97;;;26.52;37.66
10462;BME280;5278;42.656;23.374;2022-09-12T13:18:16;94396.25;;;26.57;37.69
10462;BME280;5278;42.656;23.374;2022-09-12T13:20:48;94395.44;;;26.56;37.42
10462;BME280;5278;42.656;23.374;2022-09-12T13:23:24;94390.69;;;26.53;37.49
10462;BME280;5278;42.656;23.374;2022-09-12T13:25:52;94384.91;;;26.41;37.45
10462;BME280;5278;42.656;23.374;2022-09-12T13:28:20;94360.25;;;26.26;37.76
10462;BME280;5278;42.656;23.374;2022-09-12T13:30:56;94385.28;;;26.30;37.95
10462;BME280;5278;42.656;23.374;2022-09-12T13:33:30;94380.78;;;26.20;38.39
10462;BME280;5278;42.656;23.374;2022-09-12T13:36:38;94386.66;;;26.17;37.28
10462;BME280;5278;42.656;23.374;2022-09-12T13:39:18;94360.03;;;25.73;36.61
10462;BME280;5278;42.656;23.374;2022-09-12T13:44:42;94387.03;;;25.46;37.11
10462;BME280;5278;42.656;23.374;2022-09-12T13:47:12;94388.75;;;25.02;38.37
10462;BME280;5278;42.656;23.374;2022-09-12T13:49:42;94387.22;;;24.70;39.63
10462;BME280;5278;42.656;23.374;2022-09-12T13:52:16;94393.59;;;24.59;40.36
10462;BME280;5278;42.656;23.374;2022-09-12T13:54:48;94384.03;;;24.48;40.91